Pagina principale
METAR-TAF:

METAR-TAF

Aeroporti :

Tunisi, Tunisia

Aeroporto di Tunisi-Cartagine

latitudine: 36-50N, longitudine: 010-14E, altezza: 3 m

Osservazione

Il bollettino è stato emesso 36 minuti fa, alle 09:00 UTC
Vento 7 kt da sud-est, variando fra est e sud
Temperature 26°C
Umidità 39%
Pressione 1016 hPa
Visibilità 10 km o più
Poco nuvoloso ad un'altezza di 3300 ft

METAR: DTTA 290900Z 13007KT 080V190 9999 FEW033 26/11 Q1016 NOSIG

Ora: 10:36 (09:36 UTC)

Previsione

Il bollettino è stato emesso 4 ore e 6 minuti fa, alle 05:30 UTC
Previsione valida dal 29 alle 06 UTC al 30 alle 06 UTC
Vento 12 kt da nord/nord-est
Visibilità 10 km o più
Poco nuvoloso ad un'altezza di 3300 ft
Probabilità 30% :
Temporaneamente
dal 29 alle 21 UTC al 30 alle 04 UTC
Vento 15 kt da sud/sud-est con raffiche fino a 25 kt

TAF: DTTA 290530Z 2906/3006 03012KT 9999 FEW033 PROB30 TEMPO 2921/3004 16015G25KT

Osservazioni e previsioni meteorologiche di più di 4000 aeroporti (messaggi METAR e TAF).

Le stazioni disponibili sono rappresentate dai dischi gialli e rossi sulla carta.

Puntare il mouse per vedere il nome della stazione.

Clicca sopra per visualizzare le osservazioni e previsioni meteorologiche.

Per cambiare la mappa : fare clic sui pulsanti verdi con una croce nera per ingrandire, il pulsante verde con un trattino per diminuire, o sulla freccia verde per le mappe adiacenti.


METAR-TAF: